createdAt,value
2019-04-10T00:00:53.068Z,68.13
2019-04-10T00:03:31.502Z,67.04
2019-04-10T00:05:54.176Z,68.04
2019-04-10T00:08:24.459Z,67.40
2019-04-10T00:10:54.345Z,67.15
2019-04-10T00:13:26.796Z,68.30
2019-04-10T00:15:57.151Z,67.48
2019-04-10T00:18:26.427Z,67.55
2019-04-10T00:20:56.842Z,67.53
2019-04-10T00:23:26.993Z,67.93
2019-04-10T00:25:57.275Z,67.38
2019-04-10T00:28:27.619Z,69.10
2019-04-10T00:30:57.640Z,67.49
2019-04-10T00:33:27.392Z,67.82
2019-04-10T00:35:57.630Z,68.21
2019-04-10T00:38:27.053Z,67.84
2019-04-10T00:40:57.515Z,67.65
2019-04-10T00:43:27.087Z,67.57
2019-04-10T00:46:02.028Z,67.42
2019-04-10T00:48:38.175Z,67.76
2019-04-10T00:51:10.888Z,67.70
2019-04-10T00:53:41.215Z,67.38
2019-04-10T00:56:10.826Z,66.90
2019-04-10T00:58:40.004Z,67.81
2019-04-10T01:01:09.678Z,67.55
2019-04-10T01:03:46.905Z,67.99
2019-04-10T01:06:16.393Z,68.03
2019-04-10T01:08:45.348Z,67.83
2019-04-10T01:11:15.143Z,67.54
2019-04-10T01:13:45.377Z,68.51
2019-04-10T01:16:16.253Z,68.03
2019-04-10T01:18:45.752Z,68.00
2019-04-10T01:21:16.202Z,68.22
2019-04-10T01:23:46.783Z,67.36
2019-04-10T01:26:16.128Z,68.51
2019-04-10T01:28:45.722Z,68.20
2019-04-10T01:31:15.727Z,69.90
2019-04-10T01:33:49.492Z,69.44
2019-04-10T01:36:20.698Z,68.92
2019-04-10T01:38:50.287Z,69.23
2019-04-10T01:41:20.155Z,70.11
2019-04-10T01:43:51.108Z,69.78
2019-04-10T01:46:22.191Z,70.48
2019-04-10T01:48:55.525Z,69.84
2019-04-10T01:51:25.561Z,70.57
2019-04-10T01:53:54.665Z,69.56
2019-04-10T01:56:30.220Z,69.69
2019-04-10T01:58:55.929Z,69.98
2019-04-10T02:01:29.967Z,70.64
2019-04-10T02:04:00.562Z,71.68
2019-04-10T02:06:29.893Z,71.06
2019-04-10T02:09:01.002Z,70.98
2019-04-10T02:11:32.264Z,70.85
2019-04-10T02:14:02.202Z,72.21
2019-04-10T02:16:32.592Z,71.32
2019-04-10T02:19:01.722Z,71.07
2019-04-10T02:21:31.869Z,70.88
2019-04-10T02:24:01.474Z,72.11
2019-04-10T02:26:31.734Z,71.94
2019-04-10T02:29:01.706Z,72.25
2019-04-10T02:31:32.030Z,71.48
2019-04-10T02:34:01.669Z,71.72
2019-04-10T02:36:31.648Z,71.11
2019-04-10T02:39:12.139Z,71.50
2019-04-10T02:41:32.882Z,73.29
2019-04-10T02:44:04.853Z,72.04
2019-04-10T02:46:34.569Z,71.96
2019-04-10T02:49:04.681Z,72.64
2019-04-10T02:51:36.076Z,71.59
2019-04-10T02:54:05.819Z,72.26
2019-04-10T02:56:36.637Z,71.57
2019-04-10T02:59:09.242Z,72.57
2019-04-10T03:01:39.899Z,71.77
2019-04-10T03:04:09.825Z,71.66
2019-04-10T03:06:41.016Z,72.72
2019-04-10T03:09:30.481Z,71.38
2019-04-10T03:11:42.466Z,71.04
2019-04-10T03:14:14.772Z,71.74
2019-04-10T03:16:45.725Z,71.82
2019-04-10T03:19:17.045Z,72.60
2019-04-10T03:21:47.133Z,71.71
2019-04-10T03:24:16.324Z,71.76
2019-04-10T03:26:45.887Z,72.10
2019-04-10T03:29:15.699Z,71.52
2019-04-10T03:31:47.457Z,72.04
2019-04-10T03:34:28.964Z,71.33
2019-04-10T03:36:58.419Z,71.45
2019-04-10T03:39:27.788Z,71.44
2019-04-10T03:41:57.376Z,70.93
2019-04-10T03:44:27.751Z,71.38
2019-04-10T03:46:57.329Z,72.71
2019-04-10T03:49:27.625Z,72.53
2019-04-10T03:51:57.020Z,71.43
2019-04-10T03:54:26.793Z,72.12
2019-04-10T03:56:56.282Z,71.94
2019-04-10T03:59:26.416Z,71.87
2019-04-10T04:01:56.150Z,71.23
2019-04-10T04:04:25.822Z,72.54
2019-04-10T04:06:56.089Z,72.18
2019-04-10T04:09:27.250Z,72.47
2019-04-10T04:11:57.886Z,71.47
2019-04-10T04:14:28.459Z,71.76
2019-04-10T04:16:57.826Z,70.58
2019-04-10T04:19:31.077Z,71.60
2019-04-10T04:22:00.841Z,72.07
2019-04-10T04:24:31.601Z,72.25
2019-04-10T04:27:02.707Z,71.88
2019-04-10T04:29:32.470Z,71.77
2019-04-10T04:32:01.483Z,72.16
2019-04-10T04:34:31.879Z,72.58
2019-04-10T04:37:02.462Z,73.19
2019-04-10T04:39:32.897Z,72.18
2019-04-10T04:42:03.404Z,73.35
2019-04-10T04:44:33.318Z,72.47
2019-04-10T04:47:03.443Z,72.63
2019-04-10T04:49:33.625Z,72.81
2019-04-10T04:52:02.722Z,72.25
2019-04-10T04:54:32.946Z,72.24
2019-04-10T04:57:02.520Z,74.36
2019-04-10T04:59:32.450Z,72.23
2019-04-10T05:02:03.418Z,72.41
2019-04-10T05:04:33.706Z,73.87
2019-04-10T05:07:04.282Z,72.03
2019-04-10T05:09:38.422Z,72.22
2019-04-10T05:12:05.188Z,72.83
2019-04-10T05:14:35.706Z,74.03
2019-04-10T05:17:06.056Z,72.92
2019-04-10T05:19:38.542Z,72.84
2019-04-10T05:22:10.135Z,72.41
2019-04-10T05:24:40.636Z,72.49
2019-04-10T05:27:11.902Z,72.75
2019-04-10T05:29:43.319Z,72.15
2019-04-10T05:32:14.343Z,72.30
2019-04-10T05:34:44.724Z,72.24
2019-04-10T05:37:13.891Z,71.47
2019-04-10T05:39:50.122Z,72.42
2019-04-10T05:42:16.792Z,71.34
2019-04-10T05:44:46.421Z,70.23
2019-04-10T05:47:15.667Z,69.22
2019-04-10T05:49:45.254Z,68.88
2019-04-10T05:52:15.705Z,68.34
2019-04-10T05:54:47.215Z,68.75
2019-04-10T05:57:16.211Z,67.32
2019-04-10T05:59:45.938Z,67.50
2019-04-10T06:02:16.432Z,65.65
2019-04-10T06:04:46.491Z,66.12
2019-04-10T06:07:15.704Z,65.91
2019-04-10T06:09:54.822Z,65.89
2019-04-10T06:12:16.087Z,65.27
2019-04-10T06:14:46.311Z,65.73
2019-04-10T06:17:18.341Z,64.56
2019-04-10T06:19:48.948Z,64.48
2019-04-10T06:22:18.731Z,64.13
2019-04-10T06:24:48.842Z,63.91
2019-04-10T06:27:18.604Z,64.01
2019-04-10T06:29:48.026Z,63.82
2019-04-10T06:32:17.355Z,63.34
2019-04-10T06:34:48.118Z,62.89
2019-04-10T06:37:17.995Z,63.05
2019-04-10T06:39:47.099Z,63.22
2019-04-10T06:42:16.585Z,62.55
2019-04-10T06:44:48.479Z,62.53
2019-04-10T06:47:18.140Z,61.89
2019-04-10T06:49:47.923Z,62.27
2019-04-10T06:52:17.330Z,62.01
2019-04-10T06:54:47.072Z,61.87
2019-04-10T06:57:16.714Z,61.79
2019-04-10T06:59:46.205Z,61.75
2019-04-10T07:02:23.727Z,61.88
2019-04-10T07:04:53.306Z,61.02
2019-04-10T07:07:21.833Z,60.67
2019-04-10T07:09:49.663Z,60.55
2019-04-10T07:12:19.062Z,60.10
2019-04-10T07:14:50.817Z,59.48
2019-04-10T07:17:20.153Z,59.41
2019-04-10T07:19:49.462Z,59.06
2019-04-10T07:22:18.674Z,58.50
2019-04-10T07:24:48.320Z,58.68
2019-04-10T07:27:19.544Z,56.44
2019-04-10T07:29:51.249Z,58.29
2019-04-10T07:32:22.153Z,58.41
2019-04-10T07:34:56.439Z,56.84
2019-04-10T07:37:25.879Z,55.96
2019-04-10T07:40:01.824Z,57.61
2019-04-10T07:42:35.248Z,56.85
2019-04-10T07:45:04.380Z,53.51
2019-04-10T07:47:33.742Z,55.40
2019-04-10T07:50:04.775Z,54.70
2019-04-10T07:52:37.174Z,55.19
2019-04-10T07:55:08.598Z,54.63
2019-04-10T07:57:38.480Z,52.70
2019-04-10T08:00:11.457Z,53.74
2019-04-10T08:02:42.784Z,54.19
2019-04-10T08:05:29.698Z,53.04
2019-04-10T08:07:59.446Z,52.90
2019-04-10T08:10:30.603Z,50.00
2019-04-10T08:13:02.373Z,52.13
2019-04-10T08:15:32.236Z,53.06
2019-04-10T08:18:02.586Z,51.82
2019-04-10T08:20:35.465Z,52.14
2019-04-10T08:23:07.413Z,50.65
2019-04-10T08:25:36.652Z,48.98
2019-04-10T08:28:07.249Z,51.06
2019-04-10T08:30:37.822Z,46.63
2019-04-10T08:33:07.875Z,50.48
2019-04-10T08:35:37.860Z,42.52
2019-04-10T08:38:08.071Z,44.61
2019-04-10T08:40:38.337Z,43.50
2019-04-10T08:43:08.340Z,41.52
2019-04-10T08:45:46.318Z,40.79
2019-04-10T08:48:10.055Z,48.27
2019-04-10T08:50:39.117Z,44.70
2019-04-10T08:53:09.658Z,47.22
2019-04-10T08:55:40.072Z,49.43
2019-04-10T08:58:09.056Z,49.66
2019-04-10T09:00:38.168Z,49.97
2019-04-10T09:03:08.798Z,52.13
2019-04-10T09:05:38.565Z,51.15
2019-04-10T09:08:10.697Z,51.97
2019-04-10T09:10:40.740Z,50.46
2019-04-10T09:13:12.607Z,47.29
2019-04-10T09:15:43.439Z,47.83
2019-04-10T09:18:13.150Z,39.81
2019-04-10T09:20:53.024Z,39.74
2019-04-10T09:23:39.748Z,48.63
2019-04-10T09:26:01.935Z,46.80
2019-04-10T09:28:50.839Z,44.43
2019-04-10T09:31:21.783Z,45.09
2019-04-10T09:33:53.811Z,41.51
2019-04-10T09:36:22.745Z,43.32
2019-04-10T09:38:52.847Z,43.25
2019-04-10T09:41:23.073Z,38.75
2019-04-10T09:43:53.924Z,44.28
2019-04-10T09:46:24.608Z,38.35
2019-04-10T09:48:54.414Z,36.12
2019-04-10T09:51:23.673Z,44.43
2019-04-10T09:53:53.924Z,35.64
2019-04-10T09:56:25.523Z,35.60
2019-04-10T09:58:56.663Z,46.64
2019-04-10T10:01:27.568Z,44.71
2019-04-10T10:03:59.171Z,47.70
2019-04-10T10:06:33.461Z,41.35
2019-04-10T10:09:00.570Z,44.79
2019-04-10T10:11:34.078Z,48.52
2019-04-10T10:14:04.397Z,48.16
2019-04-10T10:16:34.323Z,45.47
2019-04-10T10:19:04.118Z,47.48
2019-04-10T10:21:34.632Z,45.84
2019-04-10T10:24:04.642Z,46.91
2019-04-10T10:26:34.385Z,45.57
2019-04-10T10:29:04.809Z,45.78
2019-04-10T10:31:35.972Z,44.37
2019-04-10T10:34:06.050Z,41.58
2019-04-10T10:36:41.453Z,36.51
2019-04-10T10:39:19.006Z,42.40
2019-04-10T10:41:49.098Z,35.48
2019-04-10T10:44:19.067Z,42.10
2019-04-10T10:46:49.440Z,41.45
2019-04-10T10:49:18.624Z,37.68
2019-04-10T10:51:48.427Z,40.11
2019-04-10T10:54:18.990Z,35.59
2019-04-10T10:56:48.808Z,31.85
2019-04-10T10:59:18.025Z,40.11
2019-04-10T11:01:47.059Z,31.19
2019-04-10T11:04:17.017Z,34.27
2019-04-10T11:09:18.186Z,38.82
2019-04-10T11:11:47.393Z,36.50
2019-04-10T11:14:17.257Z,36.85
2019-04-10T11:16:47.047Z,32.44
2019-04-10T11:19:17.284Z,38.38
2019-04-10T11:21:47.127Z,42.53
2019-04-10T11:24:17.304Z,42.42
2019-04-10T11:26:46.854Z,39.81
2019-04-10T11:29:17.514Z,43.92
2019-04-10T11:31:47.509Z,42.16
2019-04-10T11:34:18.051Z,35.96
2019-04-10T11:36:50.957Z,40.10
2019-04-10T11:39:23.335Z,33.61
2019-04-10T11:41:50.419Z,32.47
2019-04-10T11:44:21.500Z,34.60
2019-04-10T11:46:52.692Z,32.30
2019-04-10T11:49:23.702Z,38.88
2019-04-10T11:51:55.938Z,37.70
2019-04-10T11:56:58.730Z,28.50
2019-04-10T11:59:29.484Z,30.33
2019-04-10T12:02:05.662Z,36.48
2019-04-10T12:04:43.517Z,39.70
2019-04-10T12:07:03.876Z,39.67
2019-04-10T12:12:22.153Z,39.12
2019-04-10T12:14:52.053Z,38.28
2019-04-10T12:17:22.147Z,30.75
2019-04-10T12:19:52.119Z,33.99
2019-04-10T12:22:23.309Z,40.28
2019-04-10T12:24:54.302Z,40.43
2019-04-10T12:27:23.512Z,39.35
2019-04-10T12:29:53.799Z,38.12
2019-04-10T12:32:25.005Z,40.14
2019-04-10T12:34:54.747Z,40.04
2019-04-10T12:37:25.590Z,41.36
2019-04-10T12:39:55.861Z,33.07
2019-04-10T12:42:25.382Z,38.41
2019-04-10T12:44:55.570Z,34.20
2019-04-10T12:47:25.948Z,39.34
2019-04-10T12:49:56.900Z,38.56
2019-04-10T12:52:28.784Z,37.01
2019-04-10T12:54:59.582Z,35.57
2019-04-10T12:57:28.957Z,36.62
2019-04-10T13:00:02.429Z,37.73
2019-04-10T13:02:30.277Z,38.07
2019-04-10T13:05:00.835Z,38.28
2019-04-10T13:07:30.161Z,38.49
2019-04-10T13:10:00.241Z,38.15
2019-04-10T13:12:30.041Z,37.44
2019-04-10T13:14:59.728Z,38.12
2019-04-10T13:17:29.146Z,37.88
2019-04-10T13:20:00.090Z,37.72
2019-04-10T13:22:30.042Z,37.78
2019-04-10T13:25:00.016Z,36.63
2019-04-10T13:27:28.968Z,38.16
2019-04-10T13:29:57.983Z,37.71
2019-04-10T13:32:29.877Z,35.18
2019-04-10T13:34:59.785Z,36.73
2019-04-10T13:37:29.217Z,36.52
2019-04-10T13:39:59.324Z,38.29
2019-04-10T13:42:30.215Z,38.62
2019-04-10T13:44:59.555Z,38.15
2019-04-10T13:47:29.222Z,36.69
2019-04-10T13:50:00.241Z,36.08
2019-04-10T13:52:30.676Z,37.54
2019-04-10T13:55:01.019Z,37.00
2019-04-10T13:57:32.822Z,36.89
2019-04-10T14:00:03.866Z,35.43
2019-04-10T14:02:36.089Z,36.90
2019-04-10T14:05:08.673Z,37.96
2019-04-10T14:07:38.349Z,35.74
2019-04-10T14:10:08.316Z,36.76
2019-04-10T14:12:38.816Z,36.08
2019-04-10T14:15:09.743Z,36.62
2019-04-10T14:17:39.039Z,35.46
2019-04-10T14:20:09.004Z,36.39
2019-04-10T14:22:48.162Z,36.90
2019-04-10T14:25:33.822Z,36.93
2019-04-10T14:28:03.404Z,36.38
2019-04-10T14:30:37.801Z,38.20
2019-04-10T14:33:08.131Z,38.47
2019-04-10T14:35:37.573Z,38.45
2019-04-10T14:38:11.632Z,37.97
2019-04-10T14:40:42.306Z,38.36
2019-04-10T14:43:12.446Z,38.65
2019-04-10T14:45:42.316Z,37.08
2019-04-10T14:48:12.479Z,38.49
2019-04-10T14:50:42.686Z,38.09
2019-04-10T14:53:11.929Z,37.80
2019-04-10T14:55:42.237Z,38.73
2019-04-10T14:58:26.338Z,38.82
2019-04-10T15:00:50.952Z,37.83
2019-04-10T15:03:22.652Z,38.31
2019-04-10T15:05:54.451Z,37.27
2019-04-10T15:08:23.799Z,38.84
2019-04-10T15:10:52.878Z,38.70
2019-04-10T15:13:24.002Z,37.71
2019-04-10T15:15:55.411Z,37.43
2019-04-10T15:18:26.766Z,38.73
2019-04-10T15:21:07.023Z,39.00
2019-04-10T15:23:38.980Z,38.53
2019-04-10T15:26:08.480Z,38.22
2019-04-10T15:37:49.272Z,38.20
2019-04-10T15:40:25.230Z,39.20
2019-04-10T15:42:52.338Z,39.60
2019-04-10T15:45:22.462Z,40.22
2019-04-10T15:47:55.473Z,40.34
2019-04-10T15:50:24.246Z,40.34
2019-04-10T15:52:55.838Z,40.32
2019-04-10T15:55:25.872Z,40.94
2019-04-10T15:57:59.047Z,40.74
2019-04-10T16:00:27.431Z,40.22
2019-04-10T16:02:57.327Z,40.25
2019-04-10T16:05:26.927Z,40.23
2019-04-10T16:07:57.137Z,40.38
2019-04-10T16:10:47.663Z,40.40
2019-04-10T16:13:38.786Z,40.74
2019-04-10T16:16:33.990Z,41.03
2019-04-10T16:19:14.756Z,41.60
2019-04-10T16:21:43.854Z,42.04
2019-04-10T16:24:14.437Z,41.10
2019-04-10T16:26:44.991Z,40.03
2019-04-10T16:29:16.002Z,40.97
2019-04-10T16:31:50.206Z,40.78
2019-04-10T16:34:19.831Z,41.15
2019-04-10T16:36:50.376Z,41.23
2019-04-10T16:39:19.864Z,41.81
2019-04-10T16:41:54.489Z,42.09
2019-04-10T16:44:37.295Z,41.61
2019-04-10T16:47:10.026Z,43.25
2019-04-10T16:49:42.060Z,43.04
2019-04-10T16:52:16.850Z,44.19
2019-04-10T16:54:46.862Z,44.56
2019-04-10T16:57:18.519Z,44.19
2019-04-10T16:59:49.217Z,44.02
2019-04-10T17:02:20.080Z,44.35
2019-04-10T17:04:50.142Z,44.95
2019-04-10T17:07:21.070Z,46.23
2019-04-10T17:10:15.980Z,44.56
2019-04-10T17:12:40.084Z,44.19
2019-04-10T17:15:12.370Z,45.05
2019-04-10T17:17:44.517Z,44.35
2019-04-10T17:20:17.822Z,44.98
2019-04-10T17:22:49.642Z,46.02
2019-04-10T17:25:20.320Z,47.07
2019-04-10T17:27:52.124Z,45.20
2019-04-10T17:30:23.085Z,44.80
2019-04-10T17:32:52.446Z,46.31
2019-04-10T17:35:23.241Z,45.41
2019-04-10T17:37:52.490Z,47.19
2019-04-10T17:40:32.170Z,44.93
2019-04-10T17:42:52.898Z,45.22
2019-04-10T17:45:23.004Z,48.31
2019-04-10T17:47:53.603Z,45.37
2019-04-10T17:50:24.628Z,45.99
2019-04-10T17:52:54.741Z,47.77
2019-04-10T17:55:29.571Z,46.79
2019-04-10T17:57:59.177Z,45.98
2019-04-10T18:00:35.569Z,47.08
2019-04-10T18:03:05.478Z,47.60
2019-04-10T18:05:35.147Z,46.72
2019-04-10T18:08:05.240Z,46.60
2019-04-10T18:10:44.741Z,48.22
2019-04-10T18:13:08.550Z,46.28
2019-04-10T18:15:40.522Z,47.17
2019-04-10T18:18:09.820Z,47.15
2019-04-10T18:20:40.255Z,48.48
2019-04-10T18:23:09.932Z,49.23
2019-04-10T18:25:40.395Z,47.22
2019-04-10T18:28:15.295Z,48.97
2019-04-10T18:30:44.612Z,49.31
2019-04-10T18:33:14.512Z,47.23
2019-04-10T18:35:44.867Z,50.46
2019-04-10T18:38:17.394Z,48.91
2019-04-10T18:40:54.013Z,50.47
2019-04-10T18:43:22.451Z,51.38
2019-04-10T18:46:03.311Z,48.28
2019-04-10T18:48:22.934Z,52.55
2019-04-10T18:50:52.238Z,50.36
2019-04-10T18:53:21.313Z,52.09
2019-04-10T18:55:50.603Z,53.40
2019-04-10T18:58:23.684Z,53.42
2019-04-10T19:01:28.399Z,51.51
2019-04-10T19:04:08.124Z,52.02
2019-04-10T19:06:53.157Z,51.27
2019-04-10T19:09:27.815Z,51.21
2019-04-10T19:11:55.134Z,55.20
2019-04-10T19:14:24.782Z,51.37
2019-04-10T19:16:55.056Z,51.60
2019-04-10T19:19:24.362Z,53.92
2019-04-10T19:21:56.004Z,53.49
2019-04-10T19:24:28.058Z,54.30
2019-04-10T19:26:57.917Z,53.72
2019-04-10T19:29:27.589Z,57.91
2019-04-10T19:32:01.513Z,58.45
2019-04-10T19:34:31.569Z,53.60
2019-04-10T19:37:01.149Z,54.00
2019-04-10T19:39:30.385Z,54.40
2019-04-10T19:42:00.771Z,54.66
2019-04-10T19:44:30.865Z,53.33
2019-04-10T19:47:00.340Z,54.43
2019-04-10T19:49:30.721Z,54.08
2019-04-10T19:52:00.206Z,54.83
2019-04-10T19:54:30.216Z,56.53
2019-04-10T19:57:01.302Z,54.89
2019-04-10T19:59:31.606Z,55.00
2019-04-10T20:02:02.483Z,55.23
2019-04-10T20:04:32.522Z,55.24
2019-04-10T20:07:03.299Z,55.64
2019-04-10T20:09:32.716Z,55.98
2019-04-10T20:12:02.435Z,55.88
2019-04-10T20:14:32.585Z,56.58
2019-04-10T20:17:02.052Z,56.75
2019-04-10T20:19:31.266Z,57.55
2019-04-10T20:22:00.736Z,56.89
2019-04-10T20:24:30.267Z,57.13
2019-04-10T20:26:59.556Z,57.54
2019-04-10T20:29:29.004Z,57.56
2019-04-10T20:31:59.542Z,58.21
2019-04-10T20:34:29.573Z,58.67
2019-04-10T20:37:02.713Z,58.93
2019-04-10T20:39:30.183Z,60.86
2019-04-10T20:42:00.903Z,58.30
2019-04-10T20:44:30.309Z,58.27
2019-04-10T20:47:00.412Z,58.33
2019-04-10T20:49:30.133Z,58.74
2019-04-10T20:51:59.905Z,61.53
2019-04-10T20:54:28.931Z,59.12
2019-04-10T20:57:01.193Z,59.62
2019-04-10T20:59:37.100Z,59.51
2019-04-10T21:02:36.762Z,60.01
2019-04-10T21:05:44.454Z,59.75
2019-04-10T21:08:15.690Z,59.97
2019-04-10T21:10:47.230Z,60.98
2019-04-10T21:13:17.051Z,61.71
2019-04-10T21:15:49.418Z,60.44
2019-04-10T21:18:19.503Z,60.98
2019-04-10T21:20:49.689Z,60.77
2019-04-10T21:23:19.404Z,61.88
2019-04-10T21:25:49.819Z,61.19
2019-04-10T21:28:20.407Z,61.89
2019-04-10T21:31:07.623Z,65.63
2019-04-10T21:33:56.777Z,64.06
2019-04-10T21:36:26.306Z,63.44
2019-04-10T21:38:56.677Z,65.28
2019-04-10T21:41:25.875Z,62.29
2019-04-10T21:43:55.985Z,63.17
2019-04-10T21:46:25.436Z,63.21
2019-04-10T21:49:01.599Z,62.19
2019-04-10T21:51:30.968Z,62.75
2019-04-10T21:54:00.483Z,63.67
2019-04-10T21:56:30.975Z,62.86
2019-04-10T21:59:01.173Z,63.37
2019-04-10T22:01:30.823Z,64.37
2019-04-10T22:04:00.568Z,62.95
2019-04-10T22:06:49.419Z,62.97
2019-04-10T22:09:56.354Z,64.86
2019-04-10T22:12:33.270Z,63.59
2019-04-10T22:15:00.336Z,64.36
2019-04-10T22:17:29.694Z,65.51
2019-04-10T22:19:59.286Z,64.81
2019-04-10T22:22:31.713Z,66.34
2019-04-10T22:25:01.292Z,66.96
2019-04-10T22:27:31.683Z,64.75
2019-04-10T22:30:01.149Z,65.10
2019-04-10T22:32:31.053Z,66.02
2019-04-10T22:35:01.093Z,66.09
2019-04-10T22:37:30.484Z,65.52
2019-04-10T22:40:00.832Z,68.67
2019-04-10T22:42:40.069Z,65.28
2019-04-10T22:45:04.475Z,67.80
2019-04-10T22:47:33.913Z,65.45
2019-04-10T22:50:03.298Z,66.03
2019-04-10T22:52:32.456Z,66.10
2019-04-10T22:55:01.864Z,67.92
2019-04-10T22:57:31.393Z,66.32
2019-04-10T23:00:00.667Z,68.77
2019-04-10T23:02:29.962Z,67.33
2019-04-10T23:05:01.990Z,70.02
2019-04-10T23:07:31.440Z,66.89
2019-04-10T23:10:00.602Z,67.05
2019-04-10T23:12:30.031Z,67.53
2019-04-10T23:15:02.919Z,67.21
2019-04-10T23:17:32.707Z,66.92
2019-04-10T23:20:02.852Z,67.24
2019-04-10T23:22:32.113Z,67.39
2019-04-10T23:25:02.661Z,72.64
2019-04-10T23:27:31.772Z,68.76
2019-04-10T23:30:00.814Z,69.37
2019-04-10T23:32:31.076Z,67.55
2019-04-10T23:35:01.173Z,68.30
2019-04-10T23:37:30.982Z,67.46
2019-04-10T23:40:00.760Z,67.37
2019-04-10T23:42:30.318Z,67.37
2019-04-10T23:44:59.586Z,68.08
2019-04-10T23:47:28.650Z,67.74
2019-04-10T23:49:58.083Z,67.99
2019-04-10T23:52:27.588Z,68.00
2019-04-10T23:54:57.560Z,68.64
2019-04-10T23:57:27.420Z,68.47
2019-04-10T23:59:57.201Z,68.42
